Capitol Logistics 990

Operating for DHL



EGNX
East Midlands Airport
Derby, GB
EGHI
Southampton Airport
Southampton, GB

Activity Log

Date Flight Route Aircraft Duration
01/06/2022 CPX990 DTY3N DTY M605 SILVA M183 CPT CPT1S B738 0h 46m

Route Details

Aircraft Information
Group: European Fleet
Types: A30F,A31F,B738
Route Data
Demand: M
Distance: 113nm
Duration: 1h 00m
Recm'd Route: DTY3N DTY M605 SILVA M183 CPT CPT1S
Origin Wx: EGNX 270650Z 27013KT CAVOK 11/04 Q1023
Dest. Wx: EGHI 270650Z 32005KT 270V360 9999 SCT016 15/11 Q1025
Notes:

Financial History
Total Freight: 35,376lbs
Average Load: 35,376lbs/flt
Fuel Used: 3,875lbs
Avg. Fuel Used: 3,875lbs/flt
Fuel Expense: $1,589
Avg. Fuel Expense: $1,589
Avg. Fuel Cost: $0.41/lbs
Total Gross Income: $73,016
Pilot Pay: $259
Total Expenses: $9,073
Total Revenue: $62,235
Average Revenue: $73,016.06